sensor_id;sensor_type;location;lat;lon;timestamp;pressure;altitude;pressure_sealevel;temperature;humidity
59825;BME280;45703;50.898;6.054;2023-04-19T00:00:48;101068.81;;;10.71;80.33
59825;BME280;45703;50.898;6.054;2023-04-19T00:03:14;101058.56;;;10.75;80.03
59825;BME280;45703;50.898;6.054;2023-04-19T00:05:41;101069.69;;;10.78;80.15
59825;BME280;45703;50.898;6.054;2023-04-19T00:08:06;101066.00;;;10.79;80.06
59825;BME280;45703;50.898;6.054;2023-04-19T00:10:32;101051.19;;;10.77;80.00
59825;BME280;45703;50.898;6.054;2023-04-19T00:13:00;101052.81;;;10.78;79.56
59825;BME280;45703;50.898;6.054;2023-04-19T00:15:25;101059.41;;;10.82;80.10
59825;BME280;45703;50.898;6.054;2023-04-19T00:17:51;101068.25;;;10.82;79.72
59825;BME280;45703;50.898;6.054;2023-04-19T00:20:16;101062.06;;;10.82;79.73
59825;BME280;45703;50.898;6.054;2023-04-19T00:22:42;101056.13;;;10.73;80.26
59825;BME280;45703;50.898;6.054;2023-04-19T00:25:07;101057.13;;;10.79;80.43
59825;BME280;45703;50.898;6.054;2023-04-19T00:27:33;101055.50;;;10.78;80.06
59825;BME280;45703;50.898;6.054;2023-04-19T00:29:58;101064.75;;;10.82;80.38
59825;BME280;45703;50.898;6.054;2023-04-19T00:32:23;101071.34;;;10.79;80.43
59825;BME280;45703;50.898;6.054;2023-04-19T00:34:49;101058.56;;;10.75;79.96
59825;BME280;45703;50.898;6.054;2023-04-19T00:37:15;101066.19;;;10.78;79.86
59825;BME280;45703;50.898;6.054;2023-04-19T00:39:40;101063.09;;;10.81;79.92
59825;BME280;45703;50.898;6.054;2023-04-19T00:42:06;101065.78;;;10.81;80.19
59825;BME280;45703;50.898;6.054;2023-04-19T00:44:31;101061.06;;;10.83;80.32
59825;BME280;45703;50.898;6.054;2023-04-19T00:46:57;101060.44;;;10.81;80.43
59825;BME280;45703;50.898;6.054;2023-04-19T00:49:24;101048.91;;;10.74;79.86
59825;BME280;45703;50.898;6.054;2023-04-19T00:51:50;101049.75;;;10.74;80.23
59825;BME280;45703;50.898;6.054;2023-04-19T00:54:16;101054.47;;;10.79;80.02
59825;BME280;45703;50.898;6.054;2023-04-19T00:56:43;101054.88;;;10.76;80.00
59825;BME280;45703;50.898;6.054;2023-04-19T00:59:09;101048.09;;;10.80;80.15
59825;BME280;45703;50.898;6.054;2023-04-19T01:01:35;101055.09;;;10.74;79.63
59825;BME280;45703;50.898;6.054;2023-04-19T01:04:02;101049.94;;;10.73;80.08
59825;BME280;45703;50.898;6.054;2023-04-19T01:06:29;101051.81;;;10.72;80.01
59825;BME280;45703;50.898;6.054;2023-04-19T01:08:55;101057.75;;;10.68;79.79
59825;BME280;45703;50.898;6.054;2023-04-19T01:11:22;101061.84;;;10.64;80.58
59825;BME280;45703;50.898;6.054;2023-04-19T01:13:48;101049.47;;;10.50;80.35
59825;BME280;45703;50.898;6.054;2023-04-19T01:16:13;101056.88;;;10.54;80.40
59825;BME280;45703;50.898;6.054;2023-04-19T01:18:39;101054.00;;;10.49;80.30
59825;BME280;45703;50.898;6.054;2023-04-19T01:21:06;101050.25;;;10.44;81.16
59825;BME280;45703;50.898;6.054;2023-04-19T01:23:32;101052.72;;;10.39;81.74
59825;BME280;45703;50.898;6.054;2023-04-19T01:25:57;101042.88;;;10.39;80.94
59825;BME280;45703;50.898;6.054;2023-04-19T01:28:23;101045.31;;;10.34;81.25
59825;BME280;45703;50.898;6.054;2023-04-19T01:30:48;101051.06;;;10.38;82.60
59825;BME280;45703;50.898;6.054;2023-04-19T01:33:18;101051.25;;;10.30;82.12
59825;BME280;45703;50.898;6.054;2023-04-19T01:35:44;101046.13;;;10.35;82.00
59825;BME280;45703;50.898;6.054;2023-04-19T01:38:09;101039.72;;;10.23;81.92
59825;BME280;45703;50.898;6.054;2023-04-19T01:40:35;101051.47;;;10.28;81.93
59825;BME280;45703;50.898;6.054;2023-04-19T01:43:00;101039.31;;;10.26;82.05
59825;BME280;45703;50.898;6.054;2023-04-19T01:45:25;101051.06;;;10.31;81.95
59825;BME280;45703;50.898;6.054;2023-04-19T01:47:51;101051.88;;;10.32;81.56
59825;BME280;45703;50.898;6.054;2023-04-19T01:50:16;101039.94;;;10.28;81.92
59825;BME280;45703;50.898;6.054;2023-04-19T01:52:42;101047.16;;;10.34;81.78
59825;BME280;45703;50.898;6.054;2023-04-19T01:55:07;101041.19;;;10.32;82.21
59825;BME280;45703;50.898;6.054;2023-04-19T01:57:33;101047.78;;;10.36;82.30
59825;BME280;45703;50.898;6.054;2023-04-19T01:59:58;101041.41;;;10.37;81.30
59825;BME280;45703;50.898;6.054;2023-04-19T02:02:24;101030.34;;;10.40;81.88
59825;BME280;45703;50.898;6.054;2023-04-19T02:04:49;101034.03;;;10.39;81.94
59825;BME280;45703;50.898;6.054;2023-04-19T02:07:14;101030.13;;;10.35;81.86
59825;BME280;45703;50.898;6.054;2023-04-19T02:09:40;101021.47;;;10.26;82.02
59825;BME280;45703;50.898;6.054;2023-04-19T02:12:05;101032.34;;;10.25;82.20
59825;BME280;45703;50.898;6.054;2023-04-19T02:14:31;101026.16;;;10.18;83.01
59825;BME280;45703;50.898;6.054;2023-04-19T02:16:57;101025.09;;;10.12;82.83
59825;BME280;45703;50.898;6.054;2023-04-19T02:19:22;101025.09;;;10.06;82.77
59825;BME280;45703;50.898;6.054;2023-04-19T02:21:48;101018.50;;;10.02;82.60
59825;BME280;45703;50.898;6.054;2023-04-19T02:24:13;101020.16;;;10.03;82.59
59825;BME280;45703;50.898;6.054;2023-04-19T02:26:39;101018.44;;;9.96;82.42
59825;BME280;45703;50.898;6.054;2023-04-19T02:29:05;101026.44;;;9.96;82.73
59825;BME280;45703;50.898;6.054;2023-04-19T02:31:30;101028.66;;;9.92;82.88
59825;BME280;45703;50.898;6.054;2023-04-19T02:33:56;101025.78;;;9.87;82.99
59825;BME280;45703;50.898;6.054;2023-04-19T02:36:21;101029.22;;;9.81;83.87
59825;BME280;45703;50.898;6.054;2023-04-19T02:38:47;101035.34;;;9.75;83.42
59825;BME280;45703;50.898;6.054;2023-04-19T02:41:12;101024.44;;;9.70;83.84
59825;BME280;45703;50.898;6.054;2023-04-19T02:43:38;101021.16;;;9.68;83.04
59825;BME280;45703;50.898;6.054;2023-04-19T02:46:03;101024.63;;;9.62;84.04
59825;BME280;45703;50.898;6.054;2023-04-19T02:48:28;101033.00;;;9.59;83.95
59825;BME280;45703;50.898;6.054;2023-04-19T02:50:54;101035.03;;;9.57;84.35
59825;BME280;45703;50.898;6.054;2023-04-19T02:53:20;101041.78;;;9.53;84.45
59825;BME280;45703;50.898;6.054;2023-04-19T02:55:45;101032.72;;;9.48;83.49
59825;BME280;45703;50.898;6.054;2023-04-19T02:58:11;101035.78;;;9.45;84.52
59825;BME280;45703;50.898;6.054;2023-04-19T03:00:36;101028.72;;;9.37;84.92
59825;BME280;45703;50.898;6.054;2023-04-19T03:03:01;101040.22;;;9.38;84.51
59825;BME280;45703;50.898;6.054;2023-04-19T03:05:28;101033.44;;;9.35;84.28
59825;BME280;45703;50.898;6.054;2023-04-19T03:07:54;101032.41;;;9.36;84.63
59825;BME280;45703;50.898;6.054;2023-04-19T03:10:20;101037.75;;;9.36;85.44
59825;BME280;45703;50.898;6.054;2023-04-19T03:12:45;101027.47;;;9.33;85.18
59825;BME280;45703;50.898;6.054;2023-04-19T03:15:11;101034.47;;;9.34;85.27
59825;BME280;45703;50.898;6.054;2023-04-19T03:17:36;101029.38;;;9.39;85.08
59825;BME280;45703;50.898;6.054;2023-04-19T03:20:02;101028.34;;;9.40;85.38
59825;BME280;45703;50.898;6.054;2023-04-19T03:22:28;101020.56;;;9.39;85.54
59825;BME280;45703;50.898;6.054;2023-04-19T03:24:54;101021.81;;;9.43;84.81
59825;BME280;45703;50.898;6.054;2023-04-19T03:27:20;101034.59;;;9.54;84.87
59825;BME280;45703;50.898;6.054;2023-04-19T03:29:45;101028.06;;;9.56;85.56
59825;BME280;45703;50.898;6.054;2023-04-19T03:32:11;101027.69;;;9.59;85.22
59825;BME280;45703;50.898;6.054;2023-04-19T03:34:36;101014.91;;;9.55;85.44
59825;BME280;45703;50.898;6.054;2023-04-19T03:37:02;101018.03;;;9.58;85.67
59825;BME280;45703;50.898;6.054;2023-04-19T03:39:27;101024.41;;;9.64;85.50
59825;BME280;45703;50.898;6.054;2023-04-19T03:41:53;101016.41;;;9.64;86.03
59825;BME280;45703;50.898;6.054;2023-04-19T03:44:18;101013.34;;;9.67;85.50
59825;BME280;45703;50.898;6.054;2023-04-19T03:46:43;101006.81;;;9.69;85.93
59825;BME280;45703;50.898;6.054;2023-04-19T03:49:10;101011.75;;;9.72;85.63
59825;BME280;45703;50.898;6.054;2023-04-19T03:51:36;101012.59;;;9.73;86.00
59825;BME280;45703;50.898;6.054;2023-04-19T03:54:01;100996.16;;;9.69;86.04
59825;BME280;45703;50.898;6.054;2023-04-19T03:56:27;101011.34;;;9.75;86.13
59825;BME280;45703;50.898;6.054;2023-04-19T03:58:52;101006.03;;;9.75;86.50
59825;BME280;45703;50.898;6.054;2023-04-19T04:01:18;101000.06;;;9.73;85.05
59825;BME280;45703;50.898;6.054;2023-04-19T04:03:44;101013.00;;;9.76;85.86
59825;BME280;45703;50.898;6.054;2023-04-19T04:06:09;101009.31;;;9.77;85.56
59825;BME280;45703;50.898;6.054;2023-04-19T04:08:35;101020.81;;;9.78;85.85
59825;BME280;45703;50.898;6.054;2023-04-19T04:11:00;101009.94;;;9.79;85.95
59825;BME280;45703;50.898;6.054;2023-04-19T04:13:26;101015.88;;;9.81;86.06
59825;BME280;45703;50.898;6.054;2023-04-19T04:15:51;101003.56;;;9.80;86.74
59825;BME280;45703;50.898;6.054;2023-04-19T04:18:19;101015.50;;;9.84;88.16
59825;BME280;45703;50.898;6.054;2023-04-19T04:20:45;101011.81;;;9.85;87.58
59825;BME280;45703;50.898;6.054;2023-04-19T04:23:10;101014.47;;;9.85;86.54
59825;BME280;45703;50.898;6.054;2023-04-19T04:25:36;101007.88;;;9.81;86.41
59825;BME280;45703;50.898;6.054;2023-04-19T04:28:05;101018.38;;;9.89;87.03
59825;BME280;45703;50.898;6.054;2023-04-19T04:30:31;101017.59;;;9.89;86.18
59825;BME280;45703;50.898;6.054;2023-04-19T04:32:57;101027.00;;;9.91;86.61
59825;BME280;45703;50.898;6.054;2023-04-19T04:35:23;101026.22;;;9.91;87.15
59825;BME280;45703;50.898;6.054;2023-04-19T04:37:48;101026.25;;;9.97;87.73
59825;BME280;45703;50.898;6.054;2023-04-19T04:40:14;101012.91;;;9.97;88.14
59825;BME280;45703;50.898;6.054;2023-04-19T04:42:40;101003.91;;;9.98;88.24
59825;BME280;45703;50.898;6.054;2023-04-19T04:45:07;101031.66;;;10.10;88.11
59825;BME280;45703;50.898;6.054;2023-04-19T04:47:35;101024.25;;;10.05;87.24
59825;BME280;45703;50.898;6.054;2023-04-19T04:50:01;101032.69;;;10.09;87.24
59825;BME280;45703;50.898;6.054;2023-04-19T04:52:27;101027.13;;;10.10;87.83
59825;BME280;45703;50.898;6.054;2023-04-19T04:54:52;101033.09;;;10.12;87.94
59825;BME280;45703;50.898;6.054;2023-04-19T04:57:18;101033.31;;;10.17;87.50
59825;BME280;45703;50.898;6.054;2023-04-19T04:59:46;101044.63;;;10.19;87.68
59825;BME280;45703;50.898;6.054;2023-04-19T05:02:13;101039.50;;;10.18;87.39
59825;BME280;45703;50.898;6.054;2023-04-19T05:04:39;101040.97;;;10.20;87.86
59825;BME280;45703;50.898;6.054;2023-04-19T05:07:04;101042.59;;;10.21;87.88
59825;BME280;45703;50.898;6.054;2023-04-19T05:09:30;101035.84;;;10.25;88.11
59825;BME280;45703;50.898;6.054;2023-04-19T05:11:55;101040.34;;;10.25;88.32
59825;BME280;45703;50.898;6.054;2023-04-19T05:14:21;101029.06;;;10.23;87.98
59825;BME280;45703;50.898;6.054;2023-04-19T05:16:46;101030.69;;;10.24;87.78
59825;BME280;45703;50.898;6.054;2023-04-19T05:19:12;101024.34;;;10.25;88.63
59825;BME280;45703;50.898;6.054;2023-04-19T05:21:37;101030.28;;;10.27;88.07
59825;BME280;45703;50.898;6.054;2023-04-19T05:24:03;101031.53;;;10.31;87.58
59825;BME280;45703;50.898;6.054;2023-04-19T05:26:28;101028.88;;;10.31;87.83
59825;BME280;45703;50.898;6.054;2023-04-19T05:28:54;101038.75;;;10.30;87.22
59825;BME280;45703;50.898;6.054;2023-04-19T05:31:20;101039.38;;;10.32;88.06
59825;BME280;45703;50.898;6.054;2023-04-19T05:33:46;101029.09;;;10.36;87.26
59825;BME280;45703;50.898;6.054;2023-04-19T05:36:12;101032.78;;;10.35;87.52
59825;BME280;45703;50.898;6.054;2023-04-19T05:38:37;101027.44;;;10.35;87.38
59825;BME280;45703;50.898;6.054;2023-04-19T05:41:03;101027.88;;;10.38;87.05
59825;BME280;45703;50.898;6.054;2023-04-19T05:43:29;101031.34;;;10.39;88.01
59825;BME280;45703;50.898;6.054;2023-04-19T05:45:55;101023.97;;;10.41;87.19
59825;BME280;45703;50.898;6.054;2023-04-19T05:48:20;101031.78;;;10.42;87.38
59825;BME280;45703;50.898;6.054;2023-04-19T05:50:46;101026.22;;;10.44;87.39
59825;BME280;45703;50.898;6.054;2023-04-19T05:53:11;101035.72;;;10.53;86.46
59825;BME280;45703;50.898;6.054;2023-04-19T05:55:36;101020.75;;;10.52;87.00
59825;BME280;45703;50.898;6.054;2023-04-19T05:58:02;101022.78;;;10.56;86.87
59825;BME280;45703;50.898;6.054;2023-04-19T06:00:27;101025.66;;;10.61;86.92
59825;BME280;45703;50.898;6.054;2023-04-19T06:02:53;101029.78;;;10.64;86.41
59825;BME280;45703;50.898;6.054;2023-04-19T06:05:18;101020.13;;;10.63;86.70
59825;BME280;45703;50.898;6.054;2023-04-19T06:07:44;101023.66;;;10.70;86.69
59825;BME280;45703;50.898;6.054;2023-04-19T06:10:10;101028.56;;;10.73;86.57
59825;BME280;45703;50.898;6.054;2023-04-19T06:12:35;101028.16;;;10.76;87.76
59825;BME280;45703;50.898;6.054;2023-04-19T06:15:01;101033.09;;;10.79;86.96
59825;BME280;45703;50.898;6.054;2023-04-19T06:17:26;101035.97;;;10.84;85.66
59825;BME280;45703;50.898;6.054;2023-04-19T06:19:52;101037.22;;;10.88;85.78
59825;BME280;45703;50.898;6.054;2023-04-19T06:22:17;101019.94;;;10.84;85.94
59825;BME280;45703;50.898;6.054;2023-04-19T06:24:44;101028.19;;;10.89;85.77
59825;BME280;45703;50.898;6.054;2023-04-19T06:27:10;101019.53;;;10.87;85.84
59825;BME280;45703;50.898;6.054;2023-04-19T06:29:36;101029.41;;;10.93;85.55
59825;BME280;45703;50.898;6.054;2023-04-19T06:32:01;101038.28;;;11.00;86.08
59825;BME280;45703;50.898;6.054;2023-04-19T06:34:26;101038.06;;;11.01;85.46
59825;BME280;45703;50.898;6.054;2023-04-19T06:36:54;101041.16;;;11.05;86.01
59825;BME280;45703;50.898;6.054;2023-04-19T06:39:19;101038.28;;;11.06;85.36
59825;BME280;45703;50.898;6.054;2023-04-19T06:41:45;101036.03;;;11.10;87.40
59825;BME280;45703;50.898;6.054;2023-04-19T06:44:10;101043.00;;;11.11;85.75
59825;BME280;45703;50.898;6.054;2023-04-19T06:46:37;101046.91;;;11.15;84.98
59825;BME280;45703;50.898;6.054;2023-04-19T06:49:03;101053.09;;;11.22;84.76
59825;BME280;45703;50.898;6.054;2023-04-19T06:51:28;101043.00;;;11.24;84.53
59825;BME280;45703;50.898;6.054;2023-04-19T06:53:53;101040.53;;;11.22;84.50
59825;BME280;45703;50.898;6.054;2023-04-19T06:56:42;101047.13;;;11.26;84.02
59825;BME280;45703;50.898;6.054;2023-04-19T06:59:12;101049.59;;;11.28;84.04
59825;BME280;45703;50.898;6.054;2023-04-19T07:01:37;101048.56;;;11.29;83.60
59825;BME280;45703;50.898;6.054;2023-04-19T07:04:04;101041.75;;;11.33;83.52
59825;BME280;45703;50.898;6.054;2023-04-19T07:06:29;101049.97;;;11.38;83.52
59825;BME280;45703;50.898;6.054;2023-04-19T07:08:55;101040.53;;;11.42;83.34
59825;BME280;45703;50.898;6.054;2023-04-19T07:11:20;101040.72;;;11.46;82.65
59825;BME280;45703;50.898;6.054;2023-04-19T07:13:46;101037.66;;;11.49;82.61
59825;BME280;45703;50.898;6.054;2023-04-19T07:16:11;101028.38;;;11.52;82.10
59825;BME280;45703;50.898;6.054;2023-04-19T07:18:38;101036.44;;;11.58;81.83
59825;BME280;45703;50.898;6.054;2023-04-19T07:21:04;101031.09;;;11.58;81.59
59825;BME280;45703;50.898;6.054;2023-04-19T07:23:29;101024.06;;;11.64;81.61
59825;BME280;45703;50.898;6.054;2023-04-19T07:25:55;101029.84;;;11.67;80.48
59825;BME280;45703;50.898;6.054;2023-04-19T07:28:21;101031.47;;;11.75;80.85
59825;BME280;45703;50.898;6.054;2023-04-19T07:30:46;101029.59;;;11.82;80.76
59825;BME280;45703;50.898;6.054;2023-04-19T07:33:12;101037.59;;;11.88;80.14
59825;BME280;45703;50.898;6.054;2023-04-19T07:35:40;101039.66;;;11.93;79.47
59825;BME280;45703;50.898;6.054;2023-04-19T07:38:05;101028.09;;;11.99;79.61
59825;BME280;45703;50.898;6.054;2023-04-19T07:40:31;101020.88;;;12.06;79.66
59825;BME280;45703;50.898;6.054;2023-04-19T07:42:59;101033.41;;;12.12;79.05
59825;BME280;45703;50.898;6.054;2023-04-19T07:45:25;101028.03;;;12.18;78.55
59825;BME280;45703;50.898;6.054;2023-04-19T07:47:50;101029.44;;;12.27;78.24
59825;BME280;45703;50.898;6.054;2023-04-19T07:50:21;101018.09;;;12.32;77.46
59825;BME280;45703;50.898;6.054;2023-04-19T07:52:49;101021.94;;;12.42;78.18
59825;BME280;45703;50.898;6.054;2023-04-19T07:55:24;101027.69;;;12.46;75.84
59825;BME280;45703;50.898;6.054;2023-04-19T07:57:49;101028.28;;;12.54;76.96
59825;BME280;45703;50.898;6.054;2023-04-19T08:00:16;101031.72;;;12.61;76.47
59825;BME280;45703;50.898;6.054;2023-04-19T08:02:46;101029.84;;;12.68;75.56
59825;BME280;45703;50.898;6.054;2023-04-19T08:05:13;101029.41;;;12.71;76.32
59825;BME280;45703;50.898;6.054;2023-04-19T08:07:39;101022.41;;;12.70;73.25
59825;BME280;45703;50.898;6.054;2023-04-19T08:10:05;101028.34;;;12.72;73.42
59825;BME280;45703;50.898;6.054;2023-04-19T08:12:31;101011.88;;;12.69;74.20
59825;BME280;45703;50.898;6.054;2023-04-19T08:14:57;101014.97;;;12.72;74.55
59825;BME280;45703;50.898;6.054;2023-04-19T08:17:22;101012.50;;;12.71;73.36
59825;BME280;45703;50.898;6.054;2023-04-19T08:19:49;101018.66;;;12.78;74.04
59825;BME280;45703;50.898;6.054;2023-04-19T08:22:15;101016.56;;;12.80;72.86
59825;BME280;45703;50.898;6.054;2023-04-19T08:24:41;101008.31;;;12.81;73.52
59825;BME280;45703;50.898;6.054;2023-04-19T08:27:08;101018.16;;;12.87;72.69
59825;BME280;45703;50.898;6.054;2023-04-19T08:29:33;101020.41;;;12.90;73.16
59825;BME280;45703;50.898;6.054;2023-04-19T08:31:59;101010.72;;;12.89;73.09
59825;BME280;45703;50.898;6.054;2023-04-19T08:34:26;101014.78;;;12.98;72.30
59825;BME280;45703;50.898;6.054;2023-04-19T08:36:51;101018.06;;;13.00;72.63
59825;BME280;45703;50.898;6.054;2023-04-19T08:39:17;101009.19;;;13.06;72.12
59825;BME280;45703;50.898;6.054;2023-04-19T08:41:42;101004.88;;;13.05;71.91
59825;BME280;45703;50.898;6.054;2023-04-19T08:44:09;101018.44;;;13.10;70.75
59825;BME280;45703;50.898;6.054;2023-04-19T08:46:35;101009.56;;;13.09;70.13
59825;BME280;45703;50.898;6.054;2023-04-19T08:49:04;101013.88;;;13.10;69.95
59825;BME280;45703;50.898;6.054;2023-04-19T08:51:31;101012.78;;;13.18;71.39
59825;BME280;45703;50.898;6.054;2023-04-19T08:53:57;101018.28;;;13.29;70.50
59825;BME280;45703;50.898;6.054;2023-04-19T08:56:23;101015.50;;;13.36;70.48
59825;BME280;45703;50.898;6.054;2023-04-19T08:58:49;101012.94;;;13.47;71.26
59825;BME280;45703;50.898;6.054;2023-04-19T09:01:14;101004.84;;;13.54;70.36
59825;BME280;45703;50.898;6.054;2023-04-19T09:03:43;101001.25;;;13.60;69.26
59825;BME280;45703;50.898;6.054;2023-04-19T09:06:11;101007.13;;;13.68;69.37
59825;BME280;45703;50.898;6.054;2023-04-19T09:08:38;101001.56;;;13.70;68.11
59825;BME280;45703;50.898;6.054;2023-04-19T09:11:04;101006.25;;;13.74;68.80
59825;BME280;45703;50.898;6.054;2023-04-19T09:13:30;101004.34;;;13.81;68.88
59825;BME280;45703;50.898;6.054;2023-04-19T09:15:56;100996.44;;;13.86;68.31
59825;BME280;45703;50.898;6.054;2023-04-19T09:18:24;100990.50;;;13.96;67.77
59825;BME280;45703;50.898;6.054;2023-04-19T09:20:50;100990.31;;;13.97;66.91
59825;BME280;45703;50.898;6.054;2023-04-19T09:23:22;100981.56;;;14.02;67.59
59825;BME280;45703;50.898;6.054;2023-04-19T09:25:58;100991.88;;;14.05;66.85
59825;BME280;45703;50.898;6.054;2023-04-19T09:28:26;100982.19;;;14.04;65.68
59825;BME280;45703;50.898;6.054;2023-04-19T09:30:52;100980.91;;;14.06;66.23
59825;BME280;45703;50.898;6.054;2023-04-19T09:35:59;100974.88;;;14.11;64.91
59825;BME280;45703;50.898;6.054;2023-04-19T09:38:25;100977.09;;;14.14;66.20
59825;BME280;45703;50.898;6.054;2023-04-19T09:40:51;100972.78;;;14.13;65.63
59825;BME280;45703;50.898;6.054;2023-04-19T09:43:23;100976.97;;;14.09;62.19
59825;BME280;45703;50.898;6.054;2023-04-19T09:45:49;100964.03;;;14.17;65.52
59825;BME280;45703;50.898;6.054;2023-04-19T09:48:15;100972.47;;;14.21;64.91
59825;BME280;45703;50.898;6.054;2023-04-19T09:50:52;100971.13;;;14.12;62.53
59825;BME280;45703;50.898;6.054;2023-04-19T09:53:19;100968.75;;;14.04;63.53
59825;BME280;45703;50.898;6.054;2023-04-19T09:55:45;100954.81;;;13.95;62.23
59825;BME280;45703;50.898;6.054;2023-04-19T09:58:12;100946.97;;;13.94;62.86
59825;BME280;45703;50.898;6.054;2023-04-19T10:00:40;100957.25;;;13.97;63.72
59825;BME280;45703;50.898;6.054;2023-04-19T10:03:08;100955.16;;;13.99;64.20
59825;BME280;45703;50.898;6.054;2023-04-19T10:05:38;100946.81;;;14.07;64.35
59825;BME280;45703;50.898;6.054;2023-04-19T10:08:09;100956.81;;;14.18;64.43
59825;BME280;45703;50.898;6.054;2023-04-19T10:10:35;100941.91;;;14.22;61.42
59825;BME280;45703;50.898;6.054;2023-04-19T10:13:03;100949.16;;;14.33;60.39
59825;BME280;45703;50.898;6.054;2023-04-19T10:15:30;100942.28;;;14.37;61.30
59825;BME280;45703;50.898;6.054;2023-04-19T10:17:56;100948.84;;;14.41;60.60
59825;BME280;45703;50.898;6.054;2023-04-19T10:20:52;100951.19;;;14.48;61.12
59825;BME280;45703;50.898;6.054;2023-04-19T10:23:21;100927.59;;;14.50;60.61
59825;BME280;45703;50.898;6.054;2023-04-19T10:25:54;100949.84;;;14.57;57.38
59825;BME280;45703;50.898;6.054;2023-04-19T10:28:20;100944.56;;;14.51;54.48
59825;BME280;45703;50.898;6.054;2023-04-19T10:30:53;100940.50;;;14.60;59.79
59825;BME280;45703;50.898;6.054;2023-04-19T10:33:27;100940.16;;;14.68;57.72
59825;BME280;45703;50.898;6.054;2023-04-19T10:35:57;100930.13;;;14.75;57.66
59825;BME280;45703;50.898;6.054;2023-04-19T10:41:01;100927.34;;;14.81;57.85
59825;BME280;45703;50.898;6.054;2023-04-19T10:43:34;100936.09;;;14.88;56.59
59825;BME280;45703;50.898;6.054;2023-04-19T10:46:07;100929.69;;;14.89;58.26
59825;BME280;45703;50.898;6.054;2023-04-19T10:48:35;100933.53;;;14.93;57.22
59825;BME280;45703;50.898;6.054;2023-04-19T10:51:15;100922.06;;;14.86;51.34
59825;BME280;45703;50.898;6.054;2023-04-19T11:02:37;100924.19;;;14.84;53.97
59825;BME280;45703;50.898;6.054;2023-04-19T11:07:02;100914.13;;;14.68;52.81
59825;BME280;45703;50.898;6.054;2023-04-19T11:09:35;100923.22;;;14.67;52.57
59825;BME280;45703;50.898;6.054;2023-04-19T11:12:09;100911.88;;;14.65;53.90
59825;BME280;45703;50.898;6.054;2023-04-19T11:14:38;100894.47;;;14.68;53.29
59825;BME280;45703;50.898;6.054;2023-04-19T11:17:21;100900.78;;;14.73;52.24
59825;BME280;45703;50.898;6.054;2023-04-19T11:20:22;100896.97;;;14.81;53.10
59825;BME280;45703;50.898;6.054;2023-04-19T11:22:47;100889.47;;;14.83;48.35
59825;BME280;45703;50.898;6.054;2023-04-19T11:25:18;100890.97;;;14.90;50.25
59825;BME280;45703;50.898;6.054;2023-04-19T11:27:53;100897.41;;;14.89;52.29
59825;BME280;45703;50.898;6.054;2023-04-19T11:30:26;100898.00;;;14.91;51.33
59825;BME280;45703;50.898;6.054;2023-04-19T11:32:53;100891.34;;;14.82;49.09
59825;BME280;45703;50.898;6.054;2023-04-19T11:35:21;100885.34;;;14.69;47.50
59825;BME280;45703;50.898;6.054;2023-04-19T11:37:47;100882.22;;;14.60;48.81
59825;BME280;45703;50.898;6.054;2023-04-19T11:40:14;100872.69;;;14.46;47.53
59825;BME280;45703;50.898;6.054;2023-04-19T11:42:40;100884.16;;;14.53;47.50
59825;BME280;45703;50.898;6.054;2023-04-19T11:45:06;100871.69;;;14.59;50.29
59825;BME280;45703;50.898;6.054;2023-04-19T11:47:32;100877.06;;;14.70;50.68
59825;BME280;45703;50.898;6.054;2023-04-19T11:52:58;100880.13;;;14.85;45.94
59825;BME280;45703;50.898;6.054;2023-04-19T11:55:24;100876.97;;;14.88;47.00
59825;BME280;45703;50.898;6.054;2023-04-19T11:57:50;100870.78;;;14.88;45.58
59825;BME280;45703;50.898;6.054;2023-04-19T12:00:26;100857.44;;;14.81;44.19
59825;BME280;45703;50.898;6.054;2023-04-19T12:02:52;100871.25;;;14.85;46.49
59825;BME280;45703;50.898;6.054;2023-04-19T12:05:18;100861.75;;;14.82;44.81
59825;BME280;45703;50.898;6.054;2023-04-19T12:08:04;100857.56;;;14.86;45.00
59825;BME280;45703;50.898;6.054;2023-04-19T12:10:31;100855.81;;;14.92;45.58
59825;BME280;45703;50.898;6.054;2023-04-19T12:12:56;100865.03;;;14.96;43.31
59825;BME280;45703;50.898;6.054;2023-04-19T12:15:23;100853.34;;;14.90;40.97
59825;BME280;45703;50.898;6.054;2023-04-19T12:18:04;100849.16;;;14.83;43.21
59825;BME280;45703;50.898;6.054;2023-04-19T12:20:34;100867.25;;;14.87;44.01
59825;BME280;45703;50.898;6.054;2023-04-19T12:23:00;100857.09;;;14.89;45.36
59825;BME280;45703;50.898;6.054;2023-04-19T12:25:28;100855.81;;;14.92;43.44
59825;BME280;45703;50.898;6.054;2023-04-19T12:27:54;100853.81;;;14.99;43.92
59825;BME280;45703;50.898;6.054;2023-04-19T12:30:19;100848.56;;;15.04;46.14
59825;BME280;45703;50.898;6.054;2023-04-19T12:32:45;100848.44;;;15.10;44.44
59825;BME280;45703;50.898;6.054;2023-04-19T12:35:10;100838.84;;;15.14;44.61
59825;BME280;45703;50.898;6.054;2023-04-19T12:37:35;100849.47;;;15.21;43.08
59825;BME280;45703;50.898;6.054;2023-04-19T12:40:01;100842.69;;;15.18;42.02
59825;BME280;45703;50.898;6.054;2023-04-19T12:42:26;100839.78;;;15.08;40.42
59825;BME280;45703;50.898;6.054;2023-04-19T12:44:52;100842.59;;;15.13;43.85
59825;BME280;45703;50.898;6.054;2023-04-19T12:47:17;100833.56;;;15.19;43.89
59825;BME280;45703;50.898;6.054;2023-04-19T12:49:42;100851.00;;;15.28;41.04
59825;BME280;45703;50.898;6.054;2023-04-19T12:52:08;100834.03;;;15.28;40.97
59825;BME280;45703;50.898;6.054;2023-04-19T12:54:33;100829.94;;;15.25;39.25
59825;BME280;45703;50.898;6.054;2023-04-19T12:56:58;100823.28;;;15.28;40.88
59825;BME280;45703;50.898;6.054;2023-04-19T12:59:25;100829.22;;;15.30;42.07
59825;BME280;45703;50.898;6.054;2023-04-19T13:01:51;100827.72;;;15.34;41.46
59825;BME280;45703;50.898;6.054;2023-04-19T13:04:16;100827.94;;;15.32;41.41
59825;BME280;45703;50.898;6.054;2023-04-19T13:06:41;100812.88;;;15.31;41.62
59825;BME280;45703;50.898;6.054;2023-04-19T13:09:07;100807.50;;;15.31;41.46